Time;durP1;ratioP1;P1;durP2;ratioP2;P2;SDS_P1;SDS_P2;PMS_P1;PMS_P2;Temp;Humidity;BMP_temperature;BMP_pressure;BME280_temperature;BME280_humidity;BME280_pressure;Samples;Min_cycle;Max_cycle;Signal;HPM_P1;HPM_P2
2021/12/03 00:01:24;;;;;;;5.97;2.47;;;-0.90;99.90;;;;;;5032753;28;20178;-65
2021/12/03 00:03:50;;;;;;;4.67;1.87;;;-0.80;99.90;;;;;;5045694;28;20637;-67
2021/12/03 00:06:16;;;;;;;1.73;1.60;;;-0.90;99.90;;;;;;5034518;28;20199;-66
2021/12/03 00:08:42;;;;;;;4.53;2.30;;;-1.00;99.90;;;;;;5038520;28;20193;-66
2021/12/03 00:11:10;;;;;;;6.83;2.10;;;-0.90;99.90;;;;;;5037997;28;20176;-65
2021/12/03 00:13:36;;;;;;;6.57;1.80;;;-1.00;99.90;;;;;;5036360;28;20196;-65
2021/12/03 00:16:03;;;;;;;7.90;2.00;;;-1.00;99.90;;;;;;5036367;28;20305;-65
2021/12/03 00:18:29;;;;;;;4.83;2.27;;;-1.00;99.90;;;;;;5037049;28;20593;-66
2021/12/03 00:20:56;;;;;;;3.83;2.30;;;-1.00;99.90;;;;;;5036403;28;20221;-66
2021/12/03 00:23:24;;;;;;;6.17;2.03;;;-1.00;99.90;;;;;;5038815;28;20189;-64
2021/12/03 00:25:50;;;;;;;2.90;2.00;;;-1.00;99.90;;;;;;5017162;28;20192;-66
2021/12/03 00:28:15;;;;;;;5.90;2.10;;;-1.00;99.90;;;;;;5040243;28;20555;-65
2021/12/03 00:30:41;;;;;;;6.17;2.20;;;-1.00;99.90;;;;;;5035938;28;20632;-67
2021/12/03 00:33:08;;;;;;;5.37;2.20;;;-1.00;99.90;;;;;;5038588;28;20702;-66
2021/12/03 00:35:34;;;;;;;4.50;2.47;;;-1.00;99.90;;;;;;5037308;28;20225;-66
2021/12/03 00:38:00;;;;;;;7.53;2.00;;;-0.90;99.90;;;;;;5039688;28;20891;-66
2021/12/03 00:40:30;;;;;;;6.90;2.13;;;-0.90;99.90;;;;;;5037345;28;20197;-65
2021/12/03 00:42:57;;;;;;;6.43;2.27;;;-0.90;99.90;;;;;;5041059;28;20219;-66
2021/12/03 00:45:22;;;;;;;3.33;1.80;;;-0.90;99.90;;;;;;5037829;28;20961;-65
2021/12/03 00:47:48;;;;;;;4.33;1.73;;;-0.90;99.90;;;;;;5037743;28;20205;-65
2021/12/03 00:50:20;;;;;;;6.47;2.03;;;-0.90;99.90;;;;;;5036123;28;20295;-66
2021/12/03 00:52:47;;;;;;;4.60;2.27;;;-0.90;99.90;;;;;;5033286;28;20228;-67
2021/12/03 00:55:13;;;;;;;3.77;1.87;;;-0.80;99.90;;;;;;5034243;28;20212;-64
2021/12/03 00:57:39;;;;;;;2.90;2.00;;;-0.80;99.90;;;;;;5040022;28;20209;-65
2021/12/03 01:00:10;;;;;;;4.97;2.57;;;-0.90;99.90;;;;;;5035951;28;20212;-67
2021/12/03 01:02:36;;;;;;;8.23;2.03;;;-0.90;99.90;;;;;;5030941;28;20203;-64
2021/12/03 01:05:02;;;;;;;5.07;1.63;;;-0.90;99.90;;;;;;5037079;28;20924;-65
2021/12/03 01:07:28;;;;;;;7.70;2.40;;;-0.90;99.90;;;;;;5037325;28;20848;-65
2021/12/03 01:09:53;;;;;;;4.70;2.10;;;-0.80;99.90;;;;;;5036961;28;20288;-66
2021/12/03 01:12:19;;;;;;;4.73;2.13;;;-0.90;99.90;;;;;;5040076;28;20232;-65
2021/12/03 01:14:44;;;;;;;11.07;2.93;;;-0.90;99.90;;;;;;5036049;28;20196;-63
2021/12/03 01:17:10;;;;;;;5.57;2.23;;;-0.90;99.90;;;;;;5041979;28;20198;-64
2021/12/03 01:19:35;;;;;;;4.97;2.60;;;-0.90;99.90;;;;;;5035072;28;20619;-65
2021/12/03 01:22:01;;;;;;;5.60;2.37;;;-0.90;99.90;;;;;;5037023;28;20193;-64
2021/12/03 01:24:27;;;;;;;3.97;2.03;;;-0.90;99.90;;;;;;5035451;28;20314;-64
2021/12/03 01:26:54;;;;;;;5.53;2.03;;;-0.90;99.90;;;;;;5040590;28;20192;-65
2021/12/03 01:29:21;;;;;;;5.90;2.73;;;-0.90;99.90;;;;;;5035096;28;20213;-65
2021/12/03 01:31:47;;;;;;;6.70;2.30;;;-0.90;99.90;;;;;;5039075;28;21022;-65
2021/12/03 01:34:14;;;;;;;5.33;2.23;;;-0.90;99.90;;;;;;5037114;28;20294;-66
2021/12/03 01:36:39;;;;;;;2.37;1.90;;;-0.80;99.90;;;;;;5035935;28;20300;-66
2021/12/03 01:39:07;;;;;;;7.73;2.23;;;-0.60;99.90;;;;;;5034282;28;20313;-64
2021/12/03 01:41:33;;;;;;;5.77;2.83;;;-0.50;99.90;;;;;;5034651;28;20174;-66
2021/12/03 01:44:02;;;;;;;6.50;2.57;;;-0.40;99.90;;;;;;5036835;28;20642;-65
2021/12/03 01:46:30;;;;;;;4.63;2.33;;;-0.40;99.90;;;;;;5029292;28;20216;-68
2021/12/03 01:48:55;;;;;;;4.77;3.50;;;-0.40;99.90;;;;;;5042568;28;20197;-62
2021/12/03 01:51:21;;;;;;;5.93;2.27;;;-0.50;99.90;;;;;;5034498;28;20189;-63
2021/12/03 01:53:47;;;;;;;4.33;2.97;;;-0.50;99.90;;;;;;5055591;28;20701;-64
2021/12/03 01:56:15;;;;;;;3.83;2.53;;;-0.60;99.90;;;;;;5033362;28;20729;-63
2021/12/03 01:58:43;;;;;;;3.17;2.53;;;-0.60;99.90;;;;;;5053691;28;20207;-64
2021/12/03 02:01:12;;;;;;;4.10;1.87;;;-0.60;99.90;;;;;;5030901;28;20656;-63
2021/12/03 02:03:40;;;;;;;7.00;2.80;;;-0.50;99.90;;;;;;5040152;28;20633;-63
2021/12/03 02:06:08;;;;;;;10.83;3.00;;;-0.50;99.90;;;;;;5034287;28;20560;-64
2021/12/03 02:08:35;;;;;;;3.40;2.50;;;-0.50;99.90;;;;;;5036714;28;20200;-63
2021/12/03 02:11:01;;;;;;;4.50;2.90;;;-0.50;99.90;;;;;;5035581;28;20509;-62
2021/12/03 02:13:27;;;;;;;3.90;2.37;;;-0.50;99.90;;;;;;5033581;28;20272;-62
2021/12/03 02:15:53;;;;;;;6.27;2.70;;;-0.50;99.90;;;;;;5034327;28;20263;-64
2021/12/03 02:18:19;;;;;;;4.53;3.60;;;-0.50;99.90;;;;;;5039494;28;20271;-64
2021/12/03 02:20:50;;;;;;;3.33;2.67;;;-0.40;99.90;;;;;;5033638;28;20200;-64
2021/12/03 02:23:16;;;;;;;5.47;2.90;;;-0.30;99.90;;;;;;5030031;28;20183;-63
2021/12/03 02:25:42;;;;;;;3.93;2.83;;;-0.40;99.90;;;;;;5033473;28;20305;-64
2021/12/03 02:28:09;;;;;;;3.40;3.07;;;-0.40;99.90;;;;;;5036651;28;20545;-63
2021/12/03 02:30:35;;;;;;;9.03;2.97;;;-0.40;99.90;;;;;;5035546;28;20303;-63
2021/12/03 02:33:01;;;;;;;5.10;2.83;;;-0.30;99.90;;;;;;5037584;28;20308;-63
2021/12/03 02:35:27;;;;;;;4.73;3.10;;;-0.40;99.90;;;;;;5034685;28;20358;-63
2021/12/03 02:37:54;;;;;;;3.67;2.70;;;-0.40;99.90;;;;;;5038252;28;20560;-63
2021/12/03 02:40:22;;;;;;;3.67;2.80;;;-0.40;99.90;;;;;;5035777;28;20761;-62
2021/12/03 02:42:48;;;;;;;4.37;3.27;;;-0.30;99.90;;;;;;5036361;28;20200;-63
2021/12/03 02:45:14;;;;;;;3.27;2.63;;;-0.30;99.90;;;;;;5038001;28;20233;-63
2021/12/03 02:47:40;;;;;;;2.73;2.20;;;-0.30;99.90;;;;;;5034789;28;20616;-64
2021/12/03 02:50:08;;;;;;;6.87;2.93;;;-0.20;99.90;;;;;;5032760;28;20231;-63
2021/12/03 02:52:34;;;;;;;9.17;3.57;;;-0.20;99.90;;;;;;5038496;28;20195;-64
2021/12/03 02:55:00;;;;;;;4.50;2.83;;;-0.10;99.90;;;;;;5034244;28;20189;-63
2021/12/03 02:57:26;;;;;;;3.27;2.90;;;-0.20;99.90;;;;;;5036015;28;20365;-63
2021/12/03 02:59:51;;;;;;;6.40;2.67;;;-0.10;99.90;;;;;;5036500;28;20284;-63
2021/12/03 03:02:20;;;;;;;3.93;2.13;;;-0.10;99.90;;;;;;5037486;28;20667;-63
2021/12/03 03:04:45;;;;;;;5.30;2.47;;;-0.10;99.90;;;;;;5035226;28;20216;-62
2021/12/03 03:07:11;;;;;;;7.33;2.97;;;-0.10;99.90;;;;;;5035953;28;20650;-62
2021/12/03 03:09:38;;;;;;;5.90;3.03;;;-0.10;99.90;;;;;;5035348;28;20232;-63
2021/12/03 03:12:04;;;;;;;9.07;3.10;;;-0.10;99.90;;;;;;5037101;28;20794;-63
2021/12/03 03:14:29;;;;;;;5.53;2.63;;;-0.10;99.90;;;;;;5033610;28;20212;-63
2021/12/03 03:16:55;;;;;;;9.23;2.73;;;-0.10;99.90;;;;;;5037087;28;20193;-64
2021/12/03 03:19:23;;;;;;;4.73;2.57;;;-0.10;99.90;;;;;;5032948;28;20714;-63
2021/12/03 03:21:49;;;;;;;4.73;2.40;;;-0.10;99.90;;;;;;5048421;28;20771;-63
2021/12/03 03:24:16;;;;;;;4.37;2.33;;;-0.10;99.90;;;;;;5036224;28;20220;-63
2021/12/03 03:26:45;;;;;;;7.30;2.30;;;-0.10;99.90;;;;;;5032156;28;20220;-62
2021/12/03 03:29:12;;;;;;;3.50;2.17;;;-0.10;99.90;;;;;;5032585;28;20335;-64
2021/12/03 03:31:39;;;;;;;5.20;2.27;;;-0.10;99.90;;;;;;5037056;28;20189;-64
2021/12/03 03:34:07;;;;;;;4.87;2.20;;;-0.10;99.90;;;;;;5033457;28;20610;-64
2021/12/03 03:36:34;;;;;;;3.07;2.23;;;-0.10;99.90;;;;;;5038815;28;20314;-63
2021/12/03 03:39:00;;;;;;;4.93;2.20;;;-0.10;99.90;;;;;;5037227;28;20201;-63
2021/12/03 03:41:26;;;;;;;5.60;2.40;;;0.00;99.90;;;;;;5041458;28;20212;-64
2021/12/03 03:43:52;;;;;;;6.73;2.53;;;0.00;99.90;;;;;;5038347;28;20283;-63
2021/12/03 03:46:18;;;;;;;3.70;2.30;;;0.10;99.90;;;;;;5041316;28;20343;-64
2021/12/03 03:48:44;;;;;;;3.33;2.80;;;0.10;99.90;;;;;;5040583;28;20198;-63
2021/12/03 03:51:10;;;;;;;3.40;2.30;;;0.10;99.90;;;;;;5057591;28;20639;-64
2021/12/03 03:53:38;;;;;;;5.53;2.50;;;0.20;99.90;;;;;;5042414;28;20694;-63
2021/12/03 03:56:04;;;;;;;2.83;2.50;;;0.10;99.90;;;;;;5054676;28;20211;-63
2021/12/03 03:58:30;;;;;;;4.80;2.57;;;0.10;99.90;;;;;;5041390;28;20207;-63
2021/12/03 04:00:56;;;;;;;5.13;1.97;;;0.10;99.90;;;;;;5056441;28;20192;-64
2021/12/03 04:03:21;;;;;;;12.53;2.67;;;0.20;99.90;;;;;;5040095;28;20214;-63
2021/12/03 04:05:46;;;;;;;8.33;2.63;;;0.20;99.90;;;;;;5067402;28;20291;-63
2021/12/03 04:08:12;;;;;;;5.90;2.40;;;0.20;99.90;;;;;;5036294;28;20202;-63
2021/12/03 04:10:38;;;;;;;5.77;2.63;;;0.20;99.90;;;;;;5062127;28;20203;-63
2021/12/03 04:13:03;;;;;;;6.97;2.70;;;0.10;99.90;;;;;;5045660;28;20228;-63
2021/12/03 04:15:29;;;;;;;7.03;2.73;;;0.20;99.90;;;;;;5062329;28;20197;-64
2021/12/03 04:17:54;;;;;;;5.10;2.43;;;0.20;99.90;;;;;;5051218;28;20242;-64
2021/12/03 04:20:21;;;;;;;4.93;2.10;;;0.20;99.90;;;;;;5048671;28;20260;-64
2021/12/03 04:22:47;;;;;;;5.03;2.60;;;0.20;99.90;;;;;;5059597;28;20241;-64
2021/12/03 04:25:15;;;;;;;4.23;2.40;;;0.10;99.90;;;;;;5045761;28;20208;-63
2021/12/03 04:27:41;;;;;;;3.63;2.97;;;0.20;99.90;;;;;;5050683;28;20658;-63
2021/12/03 04:30:11;;;;;;;3.53;2.23;;;0.10;99.90;;;;;;5036226;28;20193;-65
2021/12/03 04:32:38;;;;;;;3.97;2.70;;;0.10;99.90;;;;;;5032755;28;20232;-65
2021/12/03 04:35:04;;;;;;;5.00;2.17;;;0.10;99.90;;;;;;5033701;28;20254;-64
2021/12/03 04:37:30;;;;;;;5.33;3.27;;;0.10;99.90;;;;;;5041412;28;20211;-63
2021/12/03 04:39:55;;;;;;;5.37;2.83;;;0.10;99.90;;;;;;5044007;28;20186;-63
2021/12/03 04:42:21;;;;;;;2.83;2.10;;;0.10;99.90;;;;;;5055753;28;20201;-63
2021/12/03 04:44:46;;;;;;;3.40;2.20;;;0.10;99.90;;;;;;5038630;28;20725;-63
2021/12/03 04:47:12;;;;;;;5.40;2.60;;;0.10;99.90;;;;;;5049119;28;20192;-64
2021/12/03 04:49:37;;;;;;;7.47;3.00;;;0.10;99.90;;;;;;5037149;28;20198;-64
2021/12/03 04:52:04;;;;;;;6.70;2.60;;;0.10;99.90;;;;;;5042602;28;20197;-63
2021/12/03 04:54:29;;;;;;;4.57;2.80;;;0.20;99.90;;;;;;5033866;28;20189;-64
2021/12/03 04:56:56;;;;;;;5.27;2.57;;;0.20;99.90;;;;;;5046072;28;20218;-64
2021/12/03 04:59:23;;;;;;;4.20;2.83;;;0.20;99.90;;;;;;5035406;28;20261;-63
2021/12/03 05:01:48;;;;;;;5.43;2.00;;;0.10;99.90;;;;;;5052356;28;20291;-63
2021/12/03 05:04:14;;;;;;;10.50;3.83;;;0.10;99.90;;;;;;5027100;28;20284;-63
2021/12/03 05:09:42;;;;;;;3.33;1.97;;;0.20;99.90;;;;;;5079010;28;20195;-63
2021/12/03 05:12:08;;;;;;;5.63;2.13;;;0.10;99.90;;;;;;5058762;28;20703;-62
2021/12/03 05:14:33;;;;;;;6.80;2.47;;;0.10;99.90;;;;;;5041828;28;20184;-62
2021/12/03 05:16:59;;;;;;;4.53;2.73;;;0.10;99.90;;;;;;5058643;28;20831;-64
2021/12/03 05:19:24;;;;;;;7.43;2.43;;;0.10;99.90;;;;;;5030603;28;20193;-64
2021/12/03 05:21:50;;;;;;;4.83;2.60;;;0.10;99.90;;;;;;5063240;28;20199;-63
2021/12/03 05:24:16;;;;;;;4.90;2.80;;;0.10;99.90;;;;;;5037737;28;20946;-63
2021/12/03 05:26:43;;;;;;;3.20;1.90;;;0.10;99.90;;;;;;5050827;28;20220;-64
2021/12/03 05:29:10;;;;;;;3.47;1.87;;;0.10;99.90;;;;;;5035526;28;20207;-63
2021/12/03 05:31:36;;;;;;;5.80;2.50;;;0.10;99.90;;;;;;5045871;28;20226;-64
2021/12/03 05:34:09;;;;;;;2.23;1.93;;;0.10;99.90;;;;;;5039612;28;20295;-64
2021/12/03 05:36:35;;;;;;;2.87;2.30;;;0.00;99.90;;;;;;5052399;28;20208;-63
2021/12/03 05:39:01;;;;;;;3.83;2.13;;;0.00;99.90;;;;;;5033166;28;20207;-63
2021/12/03 05:41:26;;;;;;;3.73;2.70;;;0.00;99.90;;;;;;5048238;28;20916;-64
2021/12/03 05:43:51;;;;;;;4.40;2.53;;;-0.10;99.90;;;;;;5042205;28;20200;-64
2021/12/03 05:46:17;;;;;;;3.17;2.63;;;-0.10;99.90;;;;;;5057258;28;20211;-64
2021/12/03 05:48:42;;;;;;;4.57;2.33;;;-0.10;99.90;;;;;;5034854;28;20209;-64
2021/12/03 05:51:10;;;;;;;3.67;2.73;;;-0.20;99.90;;;;;;5055233;28;20247;-63
2021/12/03 05:53:35;;;;;;;4.80;2.03;;;-0.20;99.90;;;;;;5040518;28;20208;-65
2021/12/03 05:56:01;;;;;;;3.57;2.23;;;-0.10;99.90;;;;;;5065199;28;20202;-64
2021/12/03 05:58:26;;;;;;;3.43;2.40;;;-0.10;99.90;;;;;;5031466;28;20210;-64
2021/12/03 06:00:52;;;;;;;6.00;2.47;;;-0.10;99.90;;;;;;5060987;28;20188;-64
2021/12/03 06:03:18;;;;;;;5.47;2.93;;;-0.20;99.90;;;;;;5038965;28;20212;-64
2021/12/03 06:05:44;;;;;;;4.73;2.77;;;-0.10;99.90;;;;;;5064634;28;20230;-65
2021/12/03 06:08:10;;;;;;;4.43;2.50;;;-0.10;99.90;;;;;;5036090;28;20228;-65
2021/12/03 06:10:37;;;;;;;3.23;2.57;;;-0.20;99.90;;;;;;5059538;28;20284;-64
2021/12/03 06:13:03;;;;;;;3.07;2.10;;;-0.20;99.90;;;;;;5042987;28;20231;-65
2021/12/03 06:15:29;;;;;;;5.40;2.67;;;-0.10;99.90;;;;;;5046091;28;20193;-65
2021/12/03 06:17:56;;;;;;;6.57;2.83;;;-0.10;99.90;;;;;;5044472;28;20200;-64
2021/12/03 06:20:22;;;;;;;4.60;2.77;;;-0.10;99.90;;;;;;5046349;28;20227;-65
2021/12/03 06:22:48;;;;;;;4.60;2.57;;;-0.10;99.90;;;;;;5057182;28;20248;-64
2021/12/03 06:25:14;;;;;;;5.13;3.10;;;0.00;99.90;;;;;;5046992;28;20373;-63
2021/12/03 06:27:41;;;;;;;3.73;3.00;;;-0.10;99.90;;;;;;5031702;28;20184;-64
2021/12/03 06:30:09;;;;;;;3.33;2.47;;;-0.10;99.90;;;;;;5049719;28;20204;-63
2021/12/03 06:32:36;;;;;;;3.60;2.67;;;-0.10;99.90;;;;;;5041417;28;20635;-63
2021/12/03 06:35:02;;;;;;;4.93;3.40;;;-0.10;99.90;;;;;;5048515;28;20204;-62
2021/12/03 06:37:27;;;;;;;7.90;3.70;;;-0.10;99.90;;;;;;5032763;28;20561;-63
2021/12/03 06:39:53;;;;;;;5.73;2.93;;;-0.10;99.90;;;;;;5054245;28;20197;-64
2021/12/03 06:42:18;;;;;;;6.53;3.00;;;0.00;99.90;;;;;;5036150;28;20203;-62
2021/12/03 06:44:44;;;;;;;4.63;3.83;;;0.00;99.90;;;;;;5043829;28;20316;-62
2021/12/03 06:47:09;;;;;;;3.97;3.47;;;0.00;99.90;;;;;;5039363;28;20683;-62
2021/12/03 06:49:35;;;;;;;3.93;3.27;;;0.10;99.90;;;;;;5035883;28;20193;-62
2021/12/03 06:52:05;;;;;;;4.70;3.13;;;0.10;99.90;;;;;;5043877;28;20211;-62
2021/12/03 06:54:33;;;;;;;7.07;3.67;;;0.10;99.90;;;;;;5057597;28;20196;-63
2021/12/03 06:57:01;;;;;;;6.53;3.37;;;0.10;99.90;;;;;;5030871;28;20221;-64
2021/12/03 06:59:27;;;;;;;5.93;4.73;;;0.10;99.90;;;;;;5057957;28;20196;-65
2021/12/03 07:01:53;;;;;;;6.93;4.53;;;0.10;99.90;;;;;;5032716;28;20188;-64
2021/12/03 07:04:19;;;;;;;6.13;3.43;;;0.10;99.90;;;;;;5040249;28;20192;-64
2021/12/03 07:06:45;;;;;;;5.97;3.90;;;0.20;99.90;;;;;;5031814;28;20224;-64
2021/12/03 07:09:11;;;;;;;6.70;4.37;;;0.20;99.90;;;;;;5048580;28;20183;-64
2021/12/03 07:11:37;;;;;;;5.77;3.30;;;0.20;99.90;;;;;;5032374;28;20231;-63
2021/12/03 07:14:04;;;;;;;5.57;4.50;;;0.20;99.90;;;;;;5058847;28;20185;-63
2021/12/03 07:16:29;;;;;;;4.53;3.67;;;0.20;99.90;;;;;;5035495;28;20253;-63
2021/12/03 07:18:55;;;;;;;5.23;3.97;;;0.30;99.90;;;;;;5051031;28;20225;-62
2021/12/03 07:21:22;;;;;;;6.30;4.10;;;0.30;99.90;;;;;;5043841;28;20211;-62
2021/12/03 07:23:50;;;;;;;5.97;4.07;;;0.30;99.90;;;;;;5046347;28;20219;-63
2021/12/03 07:26:16;;;;;;;7.03;4.23;;;0.40;99.90;;;;;;5047070;28;20337;-63
2021/12/03 07:28:42;;;;;;;7.30;4.73;;;0.40;99.90;;;;;;5060627;28;20280;-63
2021/12/03 07:31:07;;;;;;;7.27;4.67;;;0.40;99.90;;;;;;5036222;28;20285;-65
2021/12/03 07:33:33;;;;;;;9.60;4.47;;;0.40;99.90;;;;;;5047845;28;20203;-63
2021/12/03 07:35:58;;;;;;;8.93;4.13;;;0.40;99.90;;;;;;5047019;28;20205;-63
2021/12/03 07:38:24;;;;;;;7.67;4.50;;;0.50;99.90;;;;;;5048553;28;20207;-62
2021/12/03 07:40:50;;;;;;;3.97;3.27;;;0.50;99.90;;;;;;5041173;28;20201;-62
2021/12/03 07:43:19;;;;;;;4.73;3.57;;;0.60;99.90;;;;;;5063745;28;20201;-63
2021/12/03 07:45:46;;;;;;;10.73;5.00;;;0.60;99.90;;;;;;5042363;28;20572;-63
2021/12/03 07:48:12;;;;;;;5.03;3.93;;;0.60;99.90;;;;;;5060505;28;20194;-62
2021/12/03 07:50:39;;;;;;;6.73;4.83;;;0.60;99.90;;;;;;5045007;28;20262;-62
2021/12/03 07:53:06;;;;;;;5.57;4.40;;;0.70;99.90;;;;;;5061459;28;20192;-62
2021/12/03 07:55:32;;;;;;;9.77;4.30;;;0.70;99.90;;;;;;5054857;28;20484;-62
2021/12/03 07:57:57;;;;;;;7.63;4.47;;;0.70;99.90;;;;;;5063759;28;20698;-62
2021/12/03 08:00:23;;;;;;;6.13;3.90;;;0.70;99.90;;;;;;5050365;28;20294;-63
2021/12/03 08:02:49;;;;;;;7.03;4.13;;;0.80;99.90;;;;;;5056997;28;20200;-62
2021/12/03 08:05:17;;;;;;;6.73;4.77;;;0.80;99.90;;;;;;5050079;28;20268;-62
2021/12/03 08:07:46;;;;;;;6.67;3.70;;;0.90;99.90;;;;;;5043084;28;20277;-62
2021/12/03 08:10:13;;;;;;;6.47;4.07;;;0.80;99.90;;;;;;5039589;28;20210;-62
2021/12/03 08:12:39;;;;;;;6.23;4.27;;;0.80;99.90;;;;;;5056485;28;20557;-63
2021/12/03 08:15:06;;;;;;;7.63;4.43;;;0.80;99.90;;;;;;5046182;28;20196;-62
2021/12/03 08:17:31;;;;;;;7.13;4.57;;;0.90;99.90;;;;;;5034452;28;20284;-61
2021/12/03 08:19:57;;;;;;;6.50;4.17;;;0.90;99.90;;;;;;5042499;28;20294;-64
2021/12/03 08:22:22;;;;;;;7.80;4.80;;;0.90;99.90;;;;;;5043656;28;20223;-63
2021/12/03 08:24:48;;;;;;;4.97;3.90;;;0.90;99.90;;;;;;5056334;28;20201;-64
2021/12/03 08:27:13;;;;;;;7.87;4.80;;;0.90;99.90;;;;;;5047528;28;20228;-65
2021/12/03 08:29:39;;;;;;;7.33;3.60;;;1.10;99.90;;;;;;5042522;28;20229;-65
2021/12/03 08:32:05;;;;;;;8.03;4.17;;;1.10;99.90;;;;;;5037681;28;20178;-62
2021/12/03 08:34:30;;;;;;;4.63;3.90;;;1.00;99.90;;;;;;5049294;28;20908;-64
2021/12/03 08:36:56;;;;;;;7.27;4.33;;;1.00;99.90;;;;;;5040267;28;20180;-65
2021/12/03 08:39:21;;;;;;;8.90;4.43;;;1.00;99.90;;;;;;5048171;28;20193;-65
2021/12/03 08:41:48;;;;;;;6.80;4.50;;;1.10;99.90;;;;;;5034671;28;20467;-64
2021/12/03 08:44:14;;;;;;;5.30;4.27;;;1.00;99.90;;;;;;5048401;28;20285;-64
2021/12/03 08:46:40;;;;;;;7.57;4.20;;;1.20;99.90;;;;;;5034146;28;20711;-64
2021/12/03 08:49:15;;;;;;;7.97;3.93;;;1.20;99.90;;;;;;5059468;28;20231;-76
2021/12/03 08:56:51;;;;;;;5.53;3.90;;;1.30;99.90;;;;;;5026690;28;20831;-63
2021/12/03 08:59:17;;;;;;;5.03;3.80;;;1.40;99.90;;;;;;5058372;28;20279;-64
2021/12/03 09:01:43;;;;;;;8.57;4.00;;;1.40;99.90;;;;;;5030123;28;20288;-63
2021/12/03 09:04:09;;;;;;;7.20;4.47;;;1.40;99.90;;;;;;5055292;28;20244;-63
2021/12/03 09:06:35;;;;;;;5.13;3.80;;;1.50;99.90;;;;;;5033413;28;20904;-63
2021/12/03 09:09:06;;;;;;;6.93;3.97;;;1.50;99.90;;;;;;5057762;28;20212;-63
2021/12/03 09:11:33;;;;;;;8.40;3.80;;;1.50;99.90;;;;;;5040209;28;20694;-64
2021/12/03 09:14:03;;;;;;;8.67;4.00;;;1.60;99.90;;;;;;5053426;28;20655;-62
2021/12/03 09:16:29;;;;;;;6.60;4.40;;;1.60;99.90;;;;;;5025559;28;20703;-65
2021/12/03 09:18:55;;;;;;;4.67;3.47;;;1.90;99.90;;;;;;5045998;28;20255;-65
2021/12/03 09:21:26;;;;;;;5.00;3.43;;;2.10;99.90;;;;;;5037327;28;20910;-65
2021/12/03 09:24:08;;;;;;;6.20;4.10;;;2.20;99.90;;;;;;5047870;28;20209;-63
2021/12/03 09:26:38;;;;;;;7.73;3.53;;;2.30;99.90;;;;;;5024425;28;20225;-65
2021/12/03 09:29:10;;;;;;;5.93;3.60;;;2.40;99.90;;;;;;5045047;28;20589;-66
2021/12/03 09:31:37;;;;;;;5.90;2.87;;;2.50;99.90;;;;;;5040798;28;20207;-65
2021/12/03 09:34:09;;;;;;;4.67;3.37;;;2.60;99.90;;;;;;5049535;28;20222;-65
2021/12/03 09:36:40;;;;;;;6.53;3.70;;;2.50;99.90;;;;;;5025814;28;20211;-66
2021/12/03 09:39:07;;;;;;;3.67;3.33;;;2.60;99.90;;;;;;5038153;28;20703;-64
2021/12/03 09:41:32;;;;;;;4.07;3.73;;;2.70;99.90;;;;;;5039315;28;20202;-65
2021/12/03 09:43:59;;;;;;;3.97;3.47;;;2.70;99.90;;;;;;5055694;28;20194;-65
2021/12/03 09:46:27;;;;;;;7.20;3.97;;;2.70;99.90;;;;;;5037469;28;20210;-66
2021/12/03 09:49:21;;;;;;;4.60;3.80;;;2.70;99.90;;;;;;5061903;28;20664;-66
2021/12/03 09:52:04;;;;;;;7.63;3.73;;;2.70;99.90;;;;;;5037682;28;20194;-65
2021/12/03 09:54:45;;;;;;;5.47;3.40;;;2.70;99.90;;;;;;5025358;28;20221;-67
2021/12/03 09:57:15;;;;;;;4.17;3.40;;;2.70;99.90;;;;;;5043503;28;20199;-67
2021/12/03 10:02:37;;;;;;;7.00;3.97;;;2.60;99.90;;;;;;5034004;28;20182;-66
2021/12/03 10:09:12;;;;;;;6.03;3.53;;;2.50;99.90;;;;;;5025434;28;20186;-66
2021/12/03 10:13:31;;;;;;;7.63;3.57;;;2.60;99.90;;;;;;5024647;28;20239;-66
2021/12/03 10:18:46;;;;;;;5.70;3.53;;;3.00;99.90;;;;;;5030707;28;20939;-64
2021/12/03 10:21:20;;;;;;;3.97;3.07;;;3.20;99.90;;;;;;5038701;28;20197;-65
2021/12/03 10:38:11;;;;;;;7.00;4.20;;;3.50;99.90;;;;;;5024424;28;20373;-77
2021/12/03 10:43:23;;;;;;;6.80;4.03;;;3.80;99.90;;;;;;5024665;28;20187;-63
2021/12/03 10:46:28;;;;;;;5.80;3.50;;;4.10;99.90;;;;;;5038295;28;20693;-64
2021/12/03 10:49:30;;;;;;;7.00;3.53;;;4.10;99.90;;;;;;5024145;28;20287;-64
2021/12/03 10:52:48;;;;;;;3.63;3.33;;;4.10;99.90;;;;;;5025157;28;20183;-65
2021/12/03 10:55:18;;;;;;;2.90;2.60;;;4.50;99.90;;;;;;5041369;28;20655;-65
2021/12/03 11:04:25;;;;;;;3.07;2.77;;;4.90;99.90;;;;;;5075472;28;20247;-63
2021/12/03 11:06:48;;;;;;;4.77;2.80;;;5.10;99.90;;;;;;5034751;28;20231;-65
2021/12/03 11:12:17;;;;;;;5.87;3.30;;;5.10;99.90;;;;;;5037477;28;20221;-65
2021/12/03 11:15:14;;;;;;;3.53;2.70;;;4.60;99.90;;;;;;5060366;28;20779;-63
2021/12/03 11:26:49;;;;;;;3.13;2.77;;;4.80;99.90;;;;;;5024236;28;20583;-72
2021/12/03 11:39:55;;;;;;;4.70;2.63;;;5.10;99.90;;;;;;5039867;28;20241;-66
2021/12/03 11:57:36;;;;;;;4.57;2.80;;;4.30;99.90;;;;;;5026696;28;20307;-75
2021/12/03 12:03:25;;;;;;;3.23;2.70;;;4.60;99.90;;;;;;5032198;28;20293;-75
2021/12/03 12:07:11;;;;;;;4.53;3.33;;;4.60;99.90;;;;;;5031765;28;20211;-76
2021/12/03 12:33:03;;;;;;;3.20;2.37;;;4.10;99.90;;;;;;5027667;28;20241;-75
2021/12/03 12:35:55;;;;;;;5.07;3.50;;;4.10;99.90;;;;;;5039450;28;20222;-75
2021/12/03 12:42:07;;;;;;;5.70;2.90;;;3.90;99.90;;;;;;5045322;28;20221;-75
2021/12/03 12:44:47;;;;;;;4.37;3.60;;;3.80;99.90;;;;;;5029740;28;20202;-75
2021/12/03 13:07:46;;;;;;;4.07;3.10;;;3.70;99.90;;;;;;5043001;28;20218;-74
2021/12/03 13:18:27;;;;;;;4.80;3.00;;;3.70;99.90;;;;;;5044540;28;20202;-73
2021/12/03 13:21:23;;;;;;;4.03;2.93;;;3.80;99.90;;;;;;5037943;28;20217;-74
2021/12/03 13:26:59;;;;;;;11.07;3.40;;;3.80;99.90;;;;;;5030187;28;20552;-73
2021/12/03 13:58:05;;;;;;;13.07;4.03;;;3.50;99.90;;;;;;5036590;28;20245;-74
2021/12/03 14:00:32;;;;;;;5.47;4.27;;;3.50;99.90;;;;;;5033655;28;20218;-75
2021/12/03 14:03:40;;;;;;;7.10;4.80;;;3.40;99.90;;;;;;5039317;28;20414;-74
2021/12/03 14:06:16;;;;;;;7.63;4.23;;;3.40;99.90;;;;;;5037134;28;20240;-73
2021/12/03 14:24:38;;;;;;;7.63;4.70;;;3.30;99.90;;;;;;5042643;28;20203;-73
2021/12/03 14:36:37;;;;;;;9.77;5.93;;;3.20;99.90;;;;;;5042679;28;20303;-72
2021/12/03 14:44:36;;;;;;;8.00;5.40;;;3.00;99.90;;;;;;5034635;28;20235;-72
2021/12/03 14:50:12;;;;;;;7.20;6.50;;;3.10;99.90;;;;;;5025760;28;20210;-70
2021/12/03 14:53:36;;;;;;;9.90;6.20;;;3.10;99.90;;;;;;5029681;28;20214;-71
2021/12/03 14:56:10;;;;;;;9.60;6.53;;;3.10;99.90;;;;;;5029492;28;20590;-73
2021/12/03 15:01:26;;;;;;;6.63;5.70;;;3.00;99.90;;;;;;5031924;28;20191;-72
2021/12/03 15:04:05;;;;;;;9.23;6.20;;;3.00;99.90;;;;;;5029642;28;20233;-72
2021/12/03 15:06:50;;;;;;;8.50;5.93;;;3.00;99.90;;;;;;5042622;28;20217;-71
2021/12/03 15:09:23;;;;;;;10.03;6.47;;;3.00;99.90;;;;;;5031111;28;20209;-71
2021/12/03 15:15:07;;;;;;;8.93;6.10;;;3.00;99.90;;;;;;5048466;28;20216;-71
2021/12/03 15:18:18;;;;;;;12.70;7.63;;;3.00;99.90;;;;;;5024893;28;20198;-73
2021/12/03 15:25:45;;;;;;;12.37;6.50;;;3.00;99.90;;;;;;5041486;28;20222;-72
2021/12/03 15:31:07;;;;;;;9.23;6.50;;;2.90;99.90;;;;;;5030494;28;20741;-72
2021/12/03 15:36:14;;;;;;;10.57;6.37;;;3.00;99.90;;;;;;5042442;28;20187;-72
2021/12/03 15:38:58;;;;;;;7.13;5.93;;;3.10;99.90;;;;;;5032987;28;20298;-72
2021/12/03 15:52:04;;;;;;;8.10;6.03;;;3.00;99.90;;;;;;5033961;28;20219;-73
2021/12/03 15:55:36;;;;;;;9.57;6.13;;;2.90;99.90;;;;;;5027204;28;20207;-70
2021/12/03 15:58:28;;;;;;;7.40;5.57;;;2.90;99.90;;;;;;5030680;28;20201;-70
2021/12/03 16:03:39;;;;;;;7.57;5.33;;;2.90;99.90;;;;;;5037638;28;20240;-71
2021/12/03 16:08:35;;;;;;;5.87;4.73;;;2.90;99.90;;;;;;5040326;28;20191;-71
2021/12/03 16:13:51;;;;;;;6.47;5.07;;;2.90;99.90;;;;;;5034459;28;20233;-72
2021/12/03 16:19:18;;;;;;;9.73;5.97;;;2.90;99.90;;;;;;5031048;28;20627;-74
2021/12/03 16:21:55;;;;;;;7.73;6.03;;;2.90;99.90;;;;;;5040046;28;20197;-71
2021/12/03 16:24:53;;;;;;;10.30;5.47;;;2.80;99.90;;;;;;5031012;28;20699;-72
2021/12/03 16:44:02;;;;;;;6.13;5.33;;;2.80;99.90;;;;;;5032951;28;20294;-72
2021/12/03 16:46:47;;;;;;;5.37;4.23;;;2.80;99.90;;;;;;5030448;28;20259;-79
2021/12/03 16:51:57;;;;;;;7.77;4.83;;;2.80;99.90;;;;;;5034596;28;20188;-81
2021/12/03 16:54:45;;;;;;;5.87;4.53;;;2.80;99.90;;;;;;5035431;28;20197;-80
2021/12/03 16:57:12;;;;;;;6.77;5.60;;;2.80;99.90;;;;;;5037959;28;20211;-78
2021/12/03 16:59:41;;;;;;;8.27;5.70;;;2.80;99.90;;;;;;5041254;28;20205;-77
2021/12/03 17:02:14;;;;;;;6.13;4.80;;;2.90;99.90;;;;;;5050569;28;20209;-84
2021/12/03 17:10:04;;;;;;;6.33;4.97;;;2.80;99.90;;;;;;5036470;28;20235;-73
2021/12/03 17:15:43;;;;;;;6.57;4.70;;;2.80;99.90;;;;;;5031923;28;20259;-71
2021/12/03 17:29:35;;;;;;;8.57;4.53;;;2.90;99.90;;;;;;5030853;28;20230;-76
2021/12/03 17:56:25;;;;;;;6.27;4.27;;;2.90;99.90;;;;;;5053152;28;20232;-76
2021/12/03 17:59:01;;;;;;;4.27;3.37;;;2.90;99.90;;;;;;5035284;28;20198;-76
2021/12/03 18:01:33;;;;;;;10.60;4.30;;;3.00;99.90;;;;;;5027428;28;20270;-82
2021/12/03 18:06:51;;;;;;;6.30;4.20;;;2.90;99.90;;;;;;5039542;28;20250;-78
2021/12/03 18:45:38;;;;;;;5.00;4.33;;;2.90;99.90;;;;;;5029240;28;20512;-79
2021/12/03 18:58:44;;;;;;;6.00;4.60;;;2.80;99.90;;;;;;5040816;28;20228;-76
2021/12/03 19:01:12;;;;;;;8.60;5.20;;;2.80;99.90;;;;;;5039172;28;20255;-77